createdAt,value
2019-03-27T00:02:25.014Z,77.50
2019-03-27T00:04:56.199Z,77.40
2019-03-27T00:07:27.573Z,77.90
2019-03-27T00:09:58.637Z,77.80
2019-03-27T00:12:29.633Z,78.10
2019-03-27T00:15:12.079Z,78.60
2019-03-27T00:17:33.334Z,78.80
2019-03-27T00:20:08.623Z,79.30
2019-03-27T00:22:39.723Z,79.50
2019-03-27T00:25:11.212Z,79.60
2019-03-27T00:27:42.251Z,79.10
2019-03-27T00:30:13.439Z,79.40
2019-03-27T00:32:44.458Z,79.60
2019-03-27T00:35:15.625Z,79.00
2019-03-27T00:37:46.456Z,79.40
2019-03-27T00:40:17.740Z,79.90
2019-03-27T00:42:50.080Z,79.50
2019-03-27T00:45:27.006Z,80.00
2019-03-27T00:47:53.780Z,80.60
2019-03-27T00:50:25.030Z,80.80
2019-03-27T00:52:56.108Z,81.10
2019-03-27T00:55:27.245Z,81.00
2019-03-27T00:57:58.262Z,81.30
2019-03-27T01:00:42.135Z,82.10
2019-03-27T01:03:13.585Z,82.30
2019-03-27T01:05:44.612Z,82.50
2019-03-27T01:08:16.578Z,82.90
2019-03-27T01:10:49.994Z,83.10
2019-03-27T01:13:21.002Z,83.40
2019-03-27T01:15:52.036Z,83.50
2019-03-27T01:18:23.023Z,83.40
2019-03-27T01:20:54.860Z,83.60
2019-03-27T01:23:25.725Z,83.80
2019-03-27T01:25:56.866Z,84.20
2019-03-27T01:28:28.794Z,84.20
2019-03-27T01:30:59.854Z,84.60
2019-03-27T01:33:30.843Z,84.70
2019-03-27T01:36:01.994Z,85.00
2019-03-27T01:38:32.934Z,84.50
2019-03-27T01:41:03.972Z,84.20
2019-03-27T01:43:35.018Z,84.80
2019-03-27T01:46:06.094Z,84.80
2019-03-27T01:48:37.045Z,85.10
2019-03-27T01:51:08.198Z,85.70
2019-03-27T01:53:39.241Z,85.80
2019-03-27T01:56:10.264Z,86.20
2019-03-27T01:58:41.283Z,86.20
2019-03-27T02:01:12.341Z,86.40
2019-03-27T02:03:46.366Z,86.30
2019-03-27T02:06:17.486Z,86.60
2019-03-27T02:08:48.741Z,86.80
2019-03-27T02:11:19.846Z,86.90
2019-03-27T02:13:50.927Z,86.80
2019-03-27T02:16:22.030Z,86.70
2019-03-27T02:18:53.068Z,86.80
2019-03-27T02:21:25.174Z,86.70
2019-03-27T02:23:56.182Z,86.70
2019-03-27T02:26:27.257Z,86.80
2019-03-27T02:28:58.218Z,87.00
2019-03-27T02:31:29.239Z,87.50
2019-03-27T02:34:00.199Z,87.60
2019-03-27T02:36:31.334Z,87.60
2019-03-27T02:39:02.499Z,87.40
2019-03-27T02:41:34.742Z,87.50
2019-03-27T02:44:05.747Z,87.60
2019-03-27T02:46:36.808Z,87.90
2019-03-27T02:49:07.838Z,88.20
2019-03-27T02:51:39.258Z,88.40
2019-03-27T02:54:10.654Z,88.80
2019-03-27T02:56:41.699Z,88.70
2019-03-27T02:59:12.688Z,88.40
2019-03-27T03:01:47.786Z,88.40
2019-03-27T03:04:16.715Z,88.50
2019-03-27T03:06:47.954Z,88.80
2019-03-27T03:09:19.122Z,89.30
2019-03-27T03:11:50.185Z,89.50
2019-03-27T03:14:24.834Z,89.10
2019-03-27T03:16:55.838Z,88.90
2019-03-27T03:19:27.217Z,88.50
2019-03-27T03:21:58.358Z,89.00
2019-03-27T03:24:29.588Z,89.60
2019-03-27T03:27:00.691Z,89.10
2019-03-27T03:29:32.706Z,89.20
2019-03-27T03:32:03.876Z,89.00
2019-03-27T03:34:34.935Z,89.00
2019-03-27T03:37:06.086Z,90.10
2019-03-27T03:39:37.141Z,89.30
2019-03-27T03:42:08.094Z,89.40
2019-03-27T03:44:39.248Z,89.00
2019-03-27T03:47:10.745Z,88.90
2019-03-27T03:49:41.829Z,88.90
2019-03-27T03:52:12.941Z,89.00
2019-03-27T03:54:43.972Z,88.50
2019-03-27T03:57:15.908Z,88.30
2019-03-27T03:59:47.717Z,88.40
2019-03-27T04:02:19.468Z,87.80
2019-03-27T04:04:53.073Z,87.70
2019-03-27T04:07:24.200Z,88.00
2019-03-27T04:09:55.398Z,87.80
2019-03-27T04:12:26.374Z,88.10
2019-03-27T04:14:57.354Z,87.70
2019-03-27T04:17:28.434Z,88.00
2019-03-27T04:19:59.684Z,87.90
2019-03-27T04:22:30.892Z,87.20
2019-03-27T04:25:02.042Z,86.90
2019-03-27T04:27:35.039Z,87.30
2019-03-27T04:30:06.035Z,87.50
2019-03-27T04:32:37.157Z,87.40
2019-03-27T04:35:08.253Z,87.10
2019-03-27T04:37:39.502Z,86.90
2019-03-27T04:40:11.563Z,86.90
2019-03-27T04:42:43.848Z,87.10
2019-03-27T04:45:17.121Z,87.00
2019-03-27T04:47:48.311Z,86.70
2019-03-27T04:50:19.375Z,87.20
2019-03-27T04:52:50.621Z,87.30
2019-03-27T04:55:21.584Z,87.30
2019-03-27T04:57:52.679Z,87.40
2019-03-27T05:00:23.790Z,87.50
2019-03-27T05:02:55.649Z,87.90
2019-03-27T05:05:26.635Z,87.50
2019-03-27T05:07:57.898Z,86.80
2019-03-27T05:10:28.920Z,86.80
2019-03-27T05:13:00.025Z,87.20
2019-03-27T05:15:31.420Z,87.20
2019-03-27T05:18:02.498Z,87.60
2019-03-27T05:20:33.640Z,87.60
2019-03-27T05:23:04.859Z,88.20
2019-03-27T05:25:36.557Z,88.20
2019-03-27T05:28:07.575Z,88.50
2019-03-27T05:30:38.645Z,88.70
2019-03-27T05:33:10.936Z,88.50
2019-03-27T05:35:42.073Z,89.00
2019-03-27T05:38:13.389Z,89.30
2019-03-27T05:40:44.402Z,89.30
2019-03-27T05:43:15.566Z,89.30
2019-03-27T05:45:46.754Z,89.30
2019-03-27T05:48:17.806Z,90.10
2019-03-27T05:50:49.072Z,89.70
2019-03-27T05:53:20.491Z,89.60
2019-03-27T05:55:51.509Z,89.90
2019-03-27T05:58:22.651Z,90.00
2019-03-27T06:00:53.670Z,90.00
2019-03-27T06:03:24.648Z,90.20
2019-03-27T06:05:55.785Z,90.20
2019-03-27T06:08:27.046Z,90.30
2019-03-27T06:10:58.155Z,90.20
2019-03-27T06:13:29.362Z,90.20
2019-03-27T06:16:00.458Z,90.30
2019-03-27T06:18:31.735Z,90.30
2019-03-27T06:21:02.727Z,90.30
2019-03-27T06:23:34.046Z,90.40
2019-03-27T06:26:05.247Z,90.30
2019-03-27T06:28:36.436Z,90.10
2019-03-27T06:31:07.882Z,90.10
2019-03-27T06:33:39.136Z,90.10
2019-03-27T06:36:10.146Z,90.00
2019-03-27T06:38:41.479Z,89.70
2019-03-27T06:41:12.521Z,89.50
2019-03-27T06:43:43.723Z,89.10
2019-03-27T06:46:17.501Z,88.60
2019-03-27T06:48:48.703Z,88.20
2019-03-27T06:51:20.229Z,87.90
2019-03-27T06:53:53.650Z,87.70
2019-03-27T06:56:24.716Z,87.60
2019-03-27T06:58:55.845Z,87.20
2019-03-27T07:01:27.839Z,86.80
2019-03-27T07:04:10.005Z,86.40
2019-03-27T07:06:31.878Z,86.10
2019-03-27T07:09:03.010Z,85.70
2019-03-27T07:11:34.037Z,85.50
2019-03-27T07:14:13.293Z,85.10
2019-03-27T07:16:45.247Z,85.00
2019-03-27T07:19:17.106Z,84.90
2019-03-27T07:21:48.456Z,84.60
2019-03-27T07:24:20.349Z,83.50
2019-03-27T07:26:51.531Z,82.80
2019-03-27T07:29:22.870Z,82.60
2019-03-27T07:31:53.993Z,82.30
2019-03-27T07:34:25.967Z,81.40
2019-03-27T07:36:56.981Z,80.90
2019-03-27T07:39:28.076Z,80.40
2019-03-27T07:41:59.052Z,80.00
2019-03-27T07:44:30.235Z,79.70
2019-03-27T07:47:01.415Z,79.00
2019-03-27T07:49:33.616Z,78.60
2019-03-27T07:52:04.572Z,77.50
2019-03-27T07:54:37.526Z,77.20
2019-03-27T07:57:08.591Z,76.90
2019-03-27T07:59:39.654Z,76.20
2019-03-27T08:02:10.813Z,76.10
2019-03-27T08:04:41.835Z,76.10
2019-03-27T08:07:25.916Z,75.80
2019-03-27T08:09:45.575Z,75.80
2019-03-27T08:12:16.808Z,75.90
2019-03-27T08:14:53.664Z,75.10
2019-03-27T08:17:24.671Z,75.00
2019-03-27T08:19:55.754Z,74.80
2019-03-27T08:22:27.003Z,73.80
2019-03-27T08:24:58.118Z,73.00
2019-03-27T08:27:33.135Z,73.40
2019-03-27T08:30:06.853Z,73.40
2019-03-27T08:32:37.898Z,72.20
2019-03-27T08:35:10.303Z,71.90
2019-03-27T08:37:41.379Z,71.50
2019-03-27T08:40:13.731Z,69.50
2019-03-27T08:42:44.652Z,69.30
2019-03-27T08:45:15.859Z,69.50
2019-03-27T08:47:46.895Z,68.30
2019-03-27T08:50:18.635Z,68.00
2019-03-27T08:52:49.724Z,68.30
2019-03-27T08:55:24.002Z,68.80
2019-03-27T08:57:55.205Z,70.00
2019-03-27T09:00:49.389Z,68.20
2019-03-27T09:03:20.512Z,67.30
2019-03-27T09:05:52.763Z,67.20
2019-03-27T09:08:23.789Z,67.40
2019-03-27T09:10:55.080Z,67.80
2019-03-27T09:13:26.213Z,67.60
2019-03-27T09:15:57.489Z,67.40
2019-03-27T09:18:28.522Z,66.20
2019-03-27T09:20:59.966Z,66.00
2019-03-27T09:23:31.011Z,66.80
2019-03-27T09:26:02.411Z,66.10
2019-03-27T09:28:33.516Z,66.20
2019-03-27T09:31:04.689Z,65.30
2019-03-27T09:33:35.584Z,64.30
2019-03-27T09:36:07.085Z,63.00
2019-03-27T09:38:38.360Z,61.60
2019-03-27T09:41:09.410Z,60.80
2019-03-27T09:43:40.624Z,59.90
2019-03-27T09:46:11.802Z,59.80
2019-03-27T09:48:43.708Z,59.50
2019-03-27T09:51:14.842Z,58.40
2019-03-27T09:53:45.728Z,57.70
2019-03-27T09:56:19.704Z,58.30
2019-03-27T09:58:50.859Z,58.50
2019-03-27T10:01:21.856Z,58.50
2019-03-27T10:03:52.745Z,58.10
2019-03-27T10:06:23.894Z,58.40
2019-03-27T10:08:55.024Z,59.10
2019-03-27T10:11:26.164Z,59.50
2019-03-27T10:13:57.394Z,60.00
2019-03-27T10:16:28.596Z,61.40
2019-03-27T10:18:59.792Z,62.20
2019-03-27T10:21:31.185Z,61.30
2019-03-27T10:24:02.250Z,61.10
2019-03-27T10:26:33.416Z,60.40
2019-03-27T10:29:04.956Z,60.30
2019-03-27T10:31:35.884Z,59.60
2019-03-27T10:34:06.920Z,59.80
2019-03-27T10:36:38.074Z,59.20
2019-03-27T10:39:09.427Z,58.50
2019-03-27T10:41:40.578Z,57.80
2019-03-27T10:44:11.619Z,56.70
2019-03-27T10:46:42.643Z,56.00
2019-03-27T10:49:13.679Z,56.10
2019-03-27T10:51:45.257Z,56.00
2019-03-27T10:54:16.336Z,55.90
2019-03-27T10:56:47.647Z,56.30
2019-03-27T10:59:18.685Z,56.40
2019-03-27T11:01:49.746Z,56.60
2019-03-27T11:04:20.816Z,56.40
2019-03-27T11:06:51.951Z,56.20
2019-03-27T11:09:23.057Z,56.20
2019-03-27T11:11:54.518Z,57.50
2019-03-27T11:14:37.242Z,57.20
2019-03-27T11:16:58.440Z,57.20
2019-03-27T11:19:29.645Z,57.10
2019-03-27T11:22:01.280Z,56.80
2019-03-27T11:24:33.082Z,56.30
2019-03-27T11:27:04.369Z,56.20
2019-03-27T11:29:35.339Z,57.00
2019-03-27T11:32:06.504Z,56.00
2019-03-27T11:34:37.453Z,56.20
2019-03-27T11:37:08.600Z,56.50
2019-03-27T11:39:40.012Z,56.00
2019-03-27T11:42:11.212Z,56.60
2019-03-27T11:44:42.079Z,55.10
2019-03-27T11:47:13.627Z,54.80
2019-03-27T11:49:44.746Z,54.50
2019-03-27T11:52:15.975Z,54.70
2019-03-27T11:54:47.267Z,54.00
2019-03-27T11:57:18.477Z,52.60
2019-03-27T11:59:54.319Z,51.80
2019-03-27T12:02:22.903Z,51.20
2019-03-27T12:04:54.092Z,51.10
2019-03-27T12:07:25.311Z,50.90
2019-03-27T12:09:56.351Z,50.40
2019-03-27T12:12:27.522Z,50.60
2019-03-27T12:14:58.667Z,50.20
2019-03-27T12:17:29.617Z,49.20
2019-03-27T12:20:00.662Z,49.10
2019-03-27T12:22:33.413Z,48.20
2019-03-27T12:25:04.413Z,47.40
2019-03-27T12:27:35.628Z,46.50
2019-03-27T12:30:07.670Z,45.60
2019-03-27T12:32:38.682Z,45.50
2019-03-27T12:35:09.818Z,44.00
2019-03-27T12:37:41.141Z,44.60
2019-03-27T12:40:12.246Z,44.80
2019-03-27T12:42:43.251Z,46.20
2019-03-27T12:45:14.690Z,47.20
2019-03-27T12:47:45.802Z,47.60
2019-03-27T12:50:17.018Z,47.80
2019-03-27T12:52:48.332Z,48.30
2019-03-27T12:55:19.470Z,49.00
2019-03-27T12:57:50.594Z,48.40
2019-03-27T13:00:21.975Z,48.60
2019-03-27T13:02:53.086Z,49.50
2019-03-27T13:05:24.162Z,48.20
2019-03-27T13:07:55.486Z,48.60
2019-03-27T13:10:26.463Z,48.70
2019-03-27T13:12:57.921Z,49.10
2019-03-27T13:15:28.988Z,48.40
2019-03-27T13:18:00.074Z,47.70
2019-03-27T13:20:31.155Z,48.00
2019-03-27T13:23:05.096Z,48.10
2019-03-27T13:25:36.250Z,48.60
2019-03-27T13:28:07.461Z,49.00
2019-03-27T13:30:38.996Z,47.40
2019-03-27T13:33:11.241Z,48.10
2019-03-27T13:35:42.539Z,47.40
2019-03-27T13:38:14.143Z,47.70
2019-03-27T13:40:45.184Z,47.40
2019-03-27T13:43:16.205Z,47.00
2019-03-27T13:45:47.170Z,47.00
2019-03-27T13:48:19.318Z,47.40
2019-03-27T13:50:50.255Z,47.20
2019-03-27T13:53:21.463Z,46.90
2019-03-27T13:55:52.469Z,47.70
2019-03-27T13:58:23.679Z,47.90
2019-03-27T14:00:54.584Z,46.50
2019-03-27T14:03:25.631Z,44.40
2019-03-27T14:05:56.623Z,43.60
2019-03-27T14:08:27.733Z,43.20
2019-03-27T14:10:58.894Z,43.10
2019-03-27T14:13:29.886Z,41.80
2019-03-27T14:16:01.330Z,42.50
2019-03-27T14:18:32.367Z,41.60
2019-03-27T14:21:03.859Z,39.70
2019-03-27T14:23:37.643Z,38.00
2019-03-27T14:26:08.634Z,37.50
2019-03-27T14:28:39.611Z,37.80
2019-03-27T14:31:10.731Z,38.10
2019-03-27T14:33:41.804Z,39.10
2019-03-27T14:36:12.808Z,39.60
2019-03-27T14:38:43.907Z,39.70
2019-03-27T14:41:14.712Z,40.70
2019-03-27T14:43:47.313Z,41.70
2019-03-27T14:46:19.203Z,43.20
2019-03-27T14:48:50.223Z,44.50
2019-03-27T14:51:21.252Z,44.70
2019-03-27T14:53:52.663Z,45.00
2019-03-27T14:56:23.870Z,45.30
2019-03-27T14:58:54.872Z,45.70
2019-03-27T15:01:25.842Z,46.50
2019-03-27T15:03:56.974Z,46.20
2019-03-27T15:06:28.325Z,46.20
2019-03-27T15:08:59.946Z,46.60
2019-03-27T15:11:31.059Z,47.30
2019-03-27T15:14:02.328Z,48.30
2019-03-27T15:16:33.380Z,47.80
2019-03-27T15:19:04.557Z,47.20
2019-03-27T15:21:36.072Z,47.70
2019-03-27T15:24:07.840Z,47.80
2019-03-27T15:26:38.782Z,47.80
2019-03-27T15:29:09.968Z,47.70
2019-03-27T15:31:45.416Z,47.20
2019-03-27T15:34:16.684Z,47.60
2019-03-27T15:36:47.790Z,48.20
2019-03-27T15:39:20.463Z,48.40
2019-03-27T15:41:51.581Z,48.00
2019-03-27T15:44:23.814Z,48.20
2019-03-27T15:46:54.863Z,47.90
2019-03-27T15:49:25.900Z,48.10
2019-03-27T15:51:56.942Z,48.20
2019-03-27T15:54:31.411Z,48.00
2019-03-27T15:57:05.637Z,48.00
2019-03-27T15:59:36.714Z,47.60
2019-03-27T16:02:12.014Z,47.60
2019-03-27T16:04:43.092Z,47.90
2019-03-27T16:07:14.211Z,48.20
2019-03-27T16:09:47.503Z,48.50
2019-03-27T16:12:19.598Z,48.60
2019-03-27T16:14:50.656Z,48.60
2019-03-27T16:17:22.497Z,48.70
2019-03-27T16:19:54.553Z,49.00
2019-03-27T16:22:25.594Z,49.00
2019-03-27T16:24:56.721Z,49.20
2019-03-27T16:27:27.606Z,48.70
2019-03-27T16:29:58.906Z,48.20
2019-03-27T16:32:29.909Z,48.10
2019-03-27T16:35:01.119Z,48.80
2019-03-27T16:37:32.072Z,48.60
2019-03-27T16:40:06.084Z,49.00
2019-03-27T16:42:37.113Z,48.70
2019-03-27T16:45:09.225Z,48.90
2019-03-27T16:47:40.413Z,49.50
2019-03-27T16:50:12.310Z,48.90
2019-03-27T16:52:43.669Z,49.30
2019-03-27T16:55:15.029Z,49.50
2019-03-27T16:57:46.037Z,49.80
2019-03-27T17:00:17.166Z,50.30
2019-03-27T17:02:48.130Z,49.80
2019-03-27T17:05:19.259Z,49.90
2019-03-27T17:07:50.256Z,50.80
2019-03-27T17:10:21.881Z,51.20
2019-03-27T17:12:53.005Z,51.50
2019-03-27T17:15:24.160Z,51.70
2019-03-27T17:17:55.490Z,52.30
2019-03-27T17:20:26.661Z,52.80
2019-03-27T17:22:57.869Z,53.00
2019-03-27T17:25:28.962Z,53.40
2019-03-27T17:28:00.000Z,53.50
2019-03-27T17:30:32.078Z,53.80
2019-03-27T17:33:03.321Z,54.10
2019-03-27T17:35:34.442Z,54.30
2019-03-27T17:38:05.425Z,54.50
2019-03-27T17:40:36.685Z,54.90
2019-03-27T17:43:07.674Z,55.10
2019-03-27T17:45:39.029Z,55.20
2019-03-27T17:48:10.044Z,55.40
2019-03-27T17:50:41.414Z,55.80
2019-03-27T17:53:12.383Z,56.30
2019-03-27T17:55:43.471Z,56.60
2019-03-27T17:58:14.557Z,57.10
2019-03-27T18:00:52.863Z,57.60
2019-03-27T18:03:23.899Z,57.90
2019-03-27T18:05:55.092Z,58.20
2019-03-27T18:08:26.051Z,58.10
2019-03-27T18:10:57.398Z,58.30
2019-03-27T18:13:29.589Z,58.50
2019-03-27T18:16:00.697Z,58.80
2019-03-27T18:18:31.850Z,59.10
2019-03-27T18:21:03.280Z,59.50
2019-03-27T18:23:45.256Z,59.70
2019-03-27T18:26:07.303Z,59.90
2019-03-27T18:28:38.481Z,60.10
2019-03-27T18:31:09.527Z,60.40
2019-03-27T18:33:40.653Z,60.70
2019-03-27T18:36:11.604Z,61.40
2019-03-27T18:38:45.693Z,61.80
2019-03-27T18:41:15.570Z,61.90
2019-03-27T18:43:46.685Z,63.10
2019-03-27T18:46:18.041Z,63.30
2019-03-27T18:48:49.145Z,63.40
2019-03-27T18:51:20.723Z,63.30
2019-03-27T18:53:59.449Z,62.70
2019-03-27T18:56:24.851Z,62.00
2019-03-27T18:58:56.000Z,61.70
2019-03-27T19:01:27.119Z,62.30
2019-03-27T19:03:58.163Z,61.30
2019-03-27T19:06:29.240Z,61.90
2019-03-27T19:09:00.337Z,61.90
2019-03-27T19:11:31.567Z,62.00
2019-03-27T19:14:02.669Z,62.50
2019-03-27T19:16:33.898Z,63.60
2019-03-27T19:19:06.559Z,64.40
2019-03-27T19:21:37.889Z,64.50
2019-03-27T19:24:16.200Z,64.50
2019-03-27T19:26:43.305Z,64.60
2019-03-27T19:29:14.743Z,64.50
2019-03-27T19:31:46.144Z,65.10
2019-03-27T19:34:17.277Z,68.00
2019-03-27T19:36:48.305Z,67.90
2019-03-27T19:39:20.281Z,68.00
2019-03-27T19:41:51.799Z,68.20
2019-03-27T19:44:22.921Z,68.20
2019-03-27T19:46:54.025Z,68.40
2019-03-27T19:49:25.133Z,68.30
2019-03-27T19:51:56.281Z,68.70
2019-03-27T19:54:29.197Z,68.60
2019-03-27T19:57:00.551Z,68.50
2019-03-27T19:59:31.848Z,68.30
2019-03-27T20:02:03.066Z,68.30
2019-03-27T20:04:34.171Z,68.10
2019-03-27T20:07:05.285Z,67.90
2019-03-27T20:09:36.342Z,68.00
2019-03-27T20:12:07.486Z,67.70
2019-03-27T20:14:38.618Z,67.70
2019-03-27T20:17:09.672Z,67.90
2019-03-27T20:19:41.757Z,68.10
2019-03-27T20:22:13.110Z,67.80
2019-03-27T20:24:44.580Z,68.60
2019-03-27T20:27:15.696Z,68.50
2019-03-27T20:29:46.803Z,68.90
2019-03-27T20:32:17.933Z,68.80
2019-03-27T20:34:49.046Z,68.80
2019-03-27T20:37:20.286Z,70.00
2019-03-27T20:39:51.333Z,70.70
2019-03-27T20:42:22.404Z,71.00
2019-03-27T20:44:53.772Z,71.90
2019-03-27T20:47:25.834Z,72.30
2019-03-27T20:49:56.863Z,72.70
2019-03-27T20:52:27.972Z,72.80
2019-03-27T20:54:59.034Z,73.00
2019-03-27T20:57:30.569Z,73.50
2019-03-27T21:00:01.699Z,73.50
2019-03-27T21:02:34.640Z,73.30
2019-03-27T21:05:05.832Z,72.80
2019-03-27T21:07:37.407Z,72.60
2019-03-27T21:10:09.194Z,72.10
2019-03-27T21:12:40.548Z,72.10
2019-03-27T21:15:11.622Z,72.20
2019-03-27T21:17:43.049Z,71.80
2019-03-27T21:20:14.461Z,72.10
2019-03-27T21:22:50.126Z,72.10
2019-03-27T21:25:21.327Z,71.60
2019-03-27T21:27:52.873Z,71.70
2019-03-27T21:30:24.010Z,72.20
2019-03-27T21:32:55.771Z,72.30
2019-03-27T21:35:26.856Z,72.00
2019-03-27T21:37:58.160Z,72.30
2019-03-27T21:40:29.180Z,72.50
2019-03-27T21:43:00.214Z,72.50
2019-03-27T21:45:32.461Z,72.70
2019-03-27T21:48:03.768Z,72.70
2019-03-27T21:50:35.996Z,72.60
2019-03-27T21:53:07.103Z,72.80
2019-03-27T21:55:42.912Z,72.40
2019-03-27T21:58:11.822Z,72.40
2019-03-27T22:00:43.059Z,72.80
2019-03-27T22:03:14.044Z,73.00
2019-03-27T22:05:45.374Z,73.60
2019-03-27T22:08:16.371Z,73.40
2019-03-27T22:10:47.335Z,74.00
2019-03-27T22:13:18.428Z,74.70
2019-03-27T22:15:50.275Z,75.40
2019-03-27T22:18:21.373Z,75.60
2019-03-27T22:20:52.630Z,75.70
2019-03-27T22:23:23.802Z,75.80
2019-03-27T22:25:55.871Z,76.10
2019-03-27T22:28:26.830Z,76.60
2019-03-27T22:30:58.189Z,76.60
2019-03-27T22:33:29.246Z,77.20
2019-03-27T22:36:00.384Z,77.30
2019-03-27T22:38:32.453Z,77.90
2019-03-27T22:41:03.762Z,77.30
2019-03-27T22:43:34.803Z,76.80
2019-03-27T22:46:05.892Z,76.70
2019-03-27T22:48:36.831Z,76.80
2019-03-27T22:51:08.133Z,77.30
2019-03-27T22:53:39.276Z,77.10
2019-03-27T22:56:10.534Z,77.40
2019-03-27T22:58:41.606Z,77.10
2019-03-27T23:01:12.744Z,77.20
2019-03-27T23:03:45.390Z,77.20
2019-03-27T23:06:17.953Z,77.50
2019-03-27T23:08:49.123Z,77.60
2019-03-27T23:11:20.196Z,77.80
2019-03-27T23:13:52.790Z,77.80
2019-03-27T23:16:23.803Z,77.50
2019-03-27T23:18:54.734Z,77.80
2019-03-27T23:21:28.435Z,78.40
2019-03-27T23:24:01.474Z,78.50
2019-03-27T23:26:32.593Z,78.10
2019-03-27T23:29:04.342Z,78.20
2019-03-27T23:31:35.603Z,78.50
2019-03-27T23:34:06.607Z,78.70
2019-03-27T23:36:37.677Z,79.00
2019-03-27T23:39:09.337Z,78.80
2019-03-27T23:41:40.494Z,78.80
2019-03-27T23:44:14.117Z,78.90
2019-03-27T23:46:46.451Z,78.90
2019-03-27T23:49:17.428Z,78.60
2019-03-27T23:51:49.868Z,78.50
2019-03-27T23:54:20.978Z,78.70
2019-03-27T23:56:52.418Z,79.20
2019-03-27T23:59:23.491Z,79.20
